sensor_id;sensor_type;location;lat;lon;timestamp;P1;durP1;ratioP1;P2;durP2;ratioP2
59504;SDS011;45321;53.200;5.814;2022-08-30T00:00:27;9.75;;;4.18;;
59504;SDS011;45321;53.200;5.814;2022-08-30T00:03:12;4.38;;;3.60;;
59504;SDS011;45321;53.200;5.814;2022-08-30T00:05:39;5.07;;;3.90;;
59504;SDS011;45321;53.200;5.814;2022-08-30T00:08:05;7.63;;;3.80;;
59504;SDS011;45321;53.200;5.814;2022-08-30T00:10:32;7.32;;;3.75;;
59504;SDS011;45321;53.200;5.814;2022-08-30T00:12:58;8.68;;;4.15;;
59504;SDS011;45321;53.200;5.814;2022-08-30T00:15:24;5.50;;;3.25;;
59504;SDS011;45321;53.200;5.814;2022-08-30T00:17:51;6.68;;;3.90;;
59504;SDS011;45321;53.200;5.814;2022-08-30T00:20:21;8.63;;;3.80;;
59504;SDS011;45321;53.200;5.814;2022-08-30T00:22:50;7.35;;;4.15;;
59504;SDS011;45321;53.200;5.814;2022-08-30T00:25:16;6.25;;;3.20;;
59504;SDS011;45321;53.200;5.814;2022-08-30T00:27:43;8.32;;;3.90;;
59504;SDS011;45321;53.200;5.814;2022-08-30T00:30:09;5.80;;;3.65;;
59504;SDS011;45321;53.200;5.814;2022-08-30T00:32:37;7.32;;;3.58;;
59504;SDS011;45321;53.200;5.814;2022-08-30T00:35:03;7.35;;;3.67;;
59504;SDS011;45321;53.200;5.814;2022-08-30T00:37:29;5.68;;;3.25;;
59504;SDS011;45321;53.200;5.814;2022-08-30T00:39:55;9.15;;;3.80;;
59504;SDS011;45321;53.200;5.814;2022-08-30T00:42:21;4.78;;;3.40;;
59504;SDS011;45321;53.200;5.814;2022-08-30T00:44:47;4.68;;;3.78;;
59504;SDS011;45321;53.200;5.814;2022-08-30T00:47:14;5.13;;;3.97;;
59504;SDS011;45321;53.200;5.814;2022-08-30T00:49:41;4.88;;;3.63;;
59504;SDS011;45321;53.200;5.814;2022-08-30T00:52:09;8.02;;;3.60;;
59504;SDS011;45321;53.200;5.814;2022-08-30T00:54:37;6.25;;;4.20;;
59504;SDS011;45321;53.200;5.814;2022-08-30T00:57:06;5.78;;;3.80;;
59504;SDS011;45321;53.200;5.814;2022-08-30T00:59:32;6.43;;;3.78;;
59504;SDS011;45321;53.200;5.814;2022-08-30T01:01:59;5.60;;;3.78;;
59504;SDS011;45321;53.200;5.814;2022-08-30T01:04:27;4.85;;;3.67;;
59504;SDS011;45321;53.200;5.814;2022-08-30T01:06:54;5.88;;;3.58;;
59504;SDS011;45321;53.200;5.814;2022-08-30T01:09:20;6.05;;;3.72;;
59504;SDS011;45321;53.200;5.814;2022-08-30T01:11:46;5.25;;;3.10;;
59504;SDS011;45321;53.200;5.814;2022-08-30T01:14:12;7.13;;;3.38;;
59504;SDS011;45321;53.200;5.814;2022-08-30T01:16:40;5.93;;;3.42;;
59504;SDS011;45321;53.200;5.814;2022-08-30T01:19:30;4.65;;;3.55;;
59504;SDS011;45321;53.200;5.814;2022-08-30T01:22:15;5.32;;;3.33;;
59504;SDS011;45321;53.200;5.814;2022-08-30T01:24:55;5.30;;;3.70;;
59504;SDS011;45321;53.200;5.814;2022-08-30T01:27:23;5.82;;;3.20;;
59504;SDS011;45321;53.200;5.814;2022-08-30T01:29:50;5.18;;;3.80;;
59504;SDS011;45321;53.200;5.814;2022-08-30T01:32:21;4.90;;;3.25;;
59504;SDS011;45321;53.200;5.814;2022-08-30T01:34:49;10.32;;;3.97;;
59504;SDS011;45321;53.200;5.814;2022-08-30T01:37:19;5.72;;;3.58;;
59504;SDS011;45321;53.200;5.814;2022-08-30T01:39:48;6.10;;;3.70;;
59504;SDS011;45321;53.200;5.814;2022-08-30T01:42:15;6.20;;;3.55;;
59504;SDS011;45321;53.200;5.814;2022-08-30T01:44:45;4.53;;;3.63;;
59504;SDS011;45321;53.200;5.814;2022-08-30T01:47:13;4.70;;;3.30;;
59504;SDS011;45321;53.200;5.814;2022-08-30T01:49:39;6.15;;;3.28;;
59504;SDS011;45321;53.200;5.814;2022-08-30T01:52:06;7.75;;;3.70;;
59504;SDS011;45321;53.200;5.814;2022-08-30T01:54:33;4.03;;;3.20;;
59504;SDS011;45321;53.200;5.814;2022-08-30T01:57:01;7.05;;;3.70;;
59504;SDS011;45321;53.200;5.814;2022-08-30T01:59:27;5.93;;;2.90;;
59504;SDS011;45321;53.200;5.814;2022-08-30T02:01:52;3.42;;;2.97;;
59504;SDS011;45321;53.200;5.814;2022-08-30T02:04:18;5.22;;;3.92;;
59504;SDS011;45321;53.200;5.814;2022-08-30T02:06:44;4.38;;;3.10;;
59504;SDS011;45321;53.200;5.814;2022-08-30T02:09:11;4.82;;;3.42;;
59504;SDS011;45321;53.200;5.814;2022-08-30T02:11:37;4.30;;;3.15;;
59504;SDS011;45321;53.200;5.814;2022-08-30T02:14:03;4.25;;;3.08;;
59504;SDS011;45321;53.200;5.814;2022-08-30T02:16:29;3.80;;;2.88;;
59504;SDS011;45321;53.200;5.814;2022-08-30T02:18:55;8.32;;;3.40;;
59504;SDS011;45321;53.200;5.814;2022-08-30T02:21:21;6.75;;;3.40;;
59504;SDS011;45321;53.200;5.814;2022-08-30T02:23:49;5.38;;;3.22;;
59504;SDS011;45321;53.200;5.814;2022-08-30T02:26:15;6.78;;;2.97;;
59504;SDS011;45321;53.200;5.814;2022-08-30T02:28:42;6.78;;;3.33;;
59504;SDS011;45321;53.200;5.814;2022-08-30T02:31:08;3.42;;;2.80;;
59504;SDS011;45321;53.200;5.814;2022-08-30T02:33:34;5.88;;;3.00;;
59504;SDS011;45321;53.200;5.814;2022-08-30T02:35:59;4.93;;;3.08;;
59504;SDS011;45321;53.200;5.814;2022-08-30T02:38:25;6.32;;;3.22;;
59504;SDS011;45321;53.200;5.814;2022-08-30T02:40:51;9.07;;;3.20;;
59504;SDS011;45321;53.200;5.814;2022-08-30T02:43:17;8.90;;;3.33;;
59504;SDS011;45321;53.200;5.814;2022-08-30T02:45:43;7.20;;;3.75;;
59504;SDS011;45321;53.200;5.814;2022-08-30T02:48:09;4.57;;;3.10;;
59504;SDS011;45321;53.200;5.814;2022-08-30T02:50:38;4.35;;;2.75;;
59504;SDS011;45321;53.200;5.814;2022-08-30T02:53:07;9.95;;;3.75;;
59504;SDS011;45321;53.200;5.814;2022-08-30T02:55:33;5.18;;;3.15;;
59504;SDS011;45321;53.200;5.814;2022-08-30T02:57:59;6.88;;;2.78;;
59504;SDS011;45321;53.200;5.814;2022-08-30T03:00:24;5.47;;;2.92;;
59504;SDS011;45321;53.200;5.814;2022-08-30T03:02:50;5.82;;;3.10;;
59504;SDS011;45321;53.200;5.814;2022-08-30T03:05:16;4.82;;;3.70;;
59504;SDS011;45321;53.200;5.814;2022-08-30T03:07:42;10.82;;;5.78;;
59504;SDS011;45321;53.200;5.814;2022-08-30T03:10:10;15.15;;;9.38;;
59504;SDS011;45321;53.200;5.814;2022-08-30T03:12:36;12.07;;;9.02;;
59504;SDS011;45321;53.200;5.814;2022-08-30T03:15:03;16.95;;;11.25;;
59504;SDS011;45321;53.200;5.814;2022-08-30T03:17:30;13.98;;;10.02;;
59504;SDS011;45321;53.200;5.814;2022-08-30T03:19:56;14.50;;;8.50;;
59504;SDS011;45321;53.200;5.814;2022-08-30T03:22:24;18.40;;;12.02;;
59504;SDS011;45321;53.200;5.814;2022-08-30T03:24:50;16.70;;;11.52;;
59504;SDS011;45321;53.200;5.814;2022-08-30T03:27:16;20.40;;;13.98;;
59504;SDS011;45321;53.200;5.814;2022-08-30T03:29:42;24.23;;;15.10;;
59504;SDS011;45321;53.200;5.814;2022-08-30T03:32:07;23.17;;;15.45;;
59504;SDS011;45321;53.200;5.814;2022-08-30T03:34:33;19.20;;;14.88;;
59504;SDS011;45321;53.200;5.814;2022-08-30T03:36:59;19.90;;;13.57;;
59504;SDS011;45321;53.200;5.814;2022-08-30T03:39:25;15.40;;;11.13;;
59504;SDS011;45321;53.200;5.814;2022-08-30T03:41:51;12.70;;;7.88;;
59504;SDS011;45321;53.200;5.814;2022-08-30T03:44:18;8.70;;;5.95;;
59504;SDS011;45321;53.200;5.814;2022-08-30T03:46:45;7.55;;;5.22;;
59504;SDS011;45321;53.200;5.814;2022-08-30T03:49:11;5.38;;;4.25;;
59504;SDS011;45321;53.200;5.814;2022-08-30T03:51:36;9.00;;;4.03;;
59504;SDS011;45321;53.200;5.814;2022-08-30T03:54:02;5.75;;;4.35;;
59504;SDS011;45321;53.200;5.814;2022-08-30T03:56:28;9.00;;;5.88;;
59504;SDS011;45321;53.200;5.814;2022-08-30T03:58:55;13.68;;;8.27;;
59504;SDS011;45321;53.200;5.814;2022-08-30T04:01:21;9.65;;;5.70;;
59504;SDS011;45321;53.200;5.814;2022-08-30T04:03:46;6.65;;;4.50;;
59504;SDS011;45321;53.200;5.814;2022-08-30T04:06:12;11.20;;;6.43;;
59504;SDS011;45321;53.200;5.814;2022-08-30T04:08:38;13.77;;;8.95;;
59504;SDS011;45321;53.200;5.814;2022-08-30T04:11:04;15.07;;;10.40;;
59504;SDS011;45321;53.200;5.814;2022-08-30T04:13:31;15.82;;;11.27;;
59504;SDS011;45321;53.200;5.814;2022-08-30T04:15:57;19.63;;;13.13;;
59504;SDS011;45321;53.200;5.814;2022-08-30T04:18:23;25.88;;;18.58;;
59504;SDS011;45321;53.200;5.814;2022-08-30T04:20:49;24.42;;;17.80;;
59504;SDS011;45321;53.200;5.814;2022-08-30T04:23:16;27.75;;;19.15;;
59504;SDS011;45321;53.200;5.814;2022-08-30T04:25:42;19.30;;;13.50;;
59504;SDS011;45321;53.200;5.814;2022-08-30T04:28:08;17.52;;;13.07;;
59504;SDS011;45321;53.200;5.814;2022-08-30T04:30:37;14.10;;;8.82;;
59504;SDS011;45321;53.200;5.814;2022-08-30T04:33:07;11.85;;;8.50;;
59504;SDS011;45321;53.200;5.814;2022-08-30T04:35:33;12.27;;;8.27;;
59504;SDS011;45321;53.200;5.814;2022-08-30T04:37:59;11.63;;;7.65;;
59504;SDS011;45321;53.200;5.814;2022-08-30T04:40:25;10.50;;;6.40;;
59504;SDS011;45321;53.200;5.814;2022-08-30T04:42:51;9.70;;;5.35;;
59504;SDS011;45321;53.200;5.814;2022-08-30T04:45:18;10.00;;;5.30;;
59504;SDS011;45321;53.200;5.814;2022-08-30T04:47:45;7.57;;;5.60;;
59504;SDS011;45321;53.200;5.814;2022-08-30T04:50:13;7.80;;;4.70;;
59504;SDS011;45321;53.200;5.814;2022-08-30T04:52:40;8.27;;;4.68;;
59504;SDS011;45321;53.200;5.814;2022-08-30T04:55:06;5.10;;;3.95;;
59504;SDS011;45321;53.200;5.814;2022-08-30T04:57:33;11.45;;;4.28;;
59504;SDS011;45321;53.200;5.814;2022-08-30T04:59:59;8.20;;;5.75;;
59504;SDS011;45321;53.200;5.814;2022-08-30T05:02:25;9.52;;;5.05;;
59504;SDS011;45321;53.200;5.814;2022-08-30T05:04:51;8.55;;;5.55;;
59504;SDS011;45321;53.200;5.814;2022-08-30T05:10:02;16.20;;;12.30;;
59504;SDS011;45321;53.200;5.814;2022-08-30T05:12:28;19.15;;;13.32;;
59504;SDS011;45321;53.200;5.814;2022-08-30T05:14:54;20.10;;;14.93;;
59504;SDS011;45321;53.200;5.814;2022-08-30T05:17:22;21.00;;;15.98;;
59504;SDS011;45321;53.200;5.814;2022-08-30T05:19:48;23.05;;;15.45;;
59504;SDS011;45321;53.200;5.814;2022-08-30T05:22:14;20.35;;;16.33;;
59504;SDS011;45321;53.200;5.814;2022-08-30T05:24:40;20.45;;;15.75;;
59504;SDS011;45321;53.200;5.814;2022-08-30T05:27:06;22.63;;;15.40;;
59504;SDS011;45321;53.200;5.814;2022-08-30T05:29:32;16.90;;;12.50;;
59504;SDS011;45321;53.200;5.814;2022-08-30T05:31:58;17.55;;;11.68;;
59504;SDS011;45321;53.200;5.814;2022-08-30T05:34:24;19.02;;;13.23;;
59504;SDS011;45321;53.200;5.814;2022-08-30T05:36:50;20.80;;;14.70;;
59504;SDS011;45321;53.200;5.814;2022-08-30T05:39:17;18.73;;;11.93;;
59504;SDS011;45321;53.200;5.814;2022-08-30T05:41:43;11.73;;;8.07;;
59504;SDS011;45321;53.200;5.814;2022-08-30T05:44:09;7.35;;;5.65;;
59504;SDS011;45321;53.200;5.814;2022-08-30T05:46:35;10.00;;;7.95;;
59504;SDS011;45321;53.200;5.814;2022-08-30T05:49:02;14.38;;;7.57;;
59504;SDS011;45321;53.200;5.814;2022-08-30T05:51:30;13.80;;;8.68;;
59504;SDS011;45321;53.200;5.814;2022-08-30T05:53:58;15.52;;;11.35;;
59504;SDS011;45321;53.200;5.814;2022-08-30T05:56:25;14.88;;;10.68;;
59504;SDS011;45321;53.200;5.814;2022-08-30T05:58:54;11.25;;;8.20;;
59504;SDS011;45321;53.200;5.814;2022-08-30T06:04:07;12.40;;;8.20;;
59504;SDS011;45321;53.200;5.814;2022-08-30T06:06:35;12.68;;;9.30;;
59504;SDS011;45321;53.200;5.814;2022-08-30T06:09:03;18.13;;;10.15;;
59504;SDS011;45321;53.200;5.814;2022-08-30T06:11:29;11.60;;;6.93;;
59504;SDS011;45321;53.200;5.814;2022-08-30T06:13:55;16.73;;;8.85;;
59504;SDS011;45321;53.200;5.814;2022-08-30T06:16:22;11.48;;;6.40;;
59504;SDS011;45321;53.200;5.814;2022-08-30T06:18:50;11.02;;;6.57;;
59504;SDS011;45321;53.200;5.814;2022-08-30T06:21:17;8.57;;;5.88;;
59504;SDS011;45321;53.200;5.814;2022-08-30T06:23:45;6.88;;;4.60;;
59504;SDS011;45321;53.200;5.814;2022-08-30T06:26:10;5.20;;;3.72;;
59504;SDS011;45321;53.200;5.814;2022-08-30T06:28:37;7.65;;;3.72;;
59504;SDS011;45321;53.200;5.814;2022-08-30T06:31:06;6.72;;;4.07;;
59504;SDS011;45321;53.200;5.814;2022-08-30T06:33:33;10.10;;;5.25;;
59504;SDS011;45321;53.200;5.814;2022-08-30T06:36:06;12.43;;;7.97;;
59504;SDS011;45321;53.200;5.814;2022-08-30T06:38:34;11.07;;;8.10;;
59504;SDS011;45321;53.200;5.814;2022-08-30T06:41:03;9.48;;;7.03;;
59504;SDS011;45321;53.200;5.814;2022-08-30T06:43:33;6.85;;;5.80;;
59504;SDS011;45321;53.200;5.814;2022-08-30T06:46:03;8.32;;;5.53;;
59504;SDS011;45321;53.200;5.814;2022-08-30T06:48:30;7.82;;;4.95;;
59504;SDS011;45321;53.200;5.814;2022-08-30T06:50:55;8.98;;;4.90;;
59504;SDS011;45321;53.200;5.814;2022-08-30T06:53:21;8.07;;;4.90;;
59504;SDS011;45321;53.200;5.814;2022-08-30T06:56:06;9.75;;;5.63;;
59504;SDS011;45321;53.200;5.814;2022-08-30T07:01:03;10.23;;;5.53;;
59504;SDS011;45321;53.200;5.814;2022-08-30T07:03:30;6.88;;;3.80;;
59504;SDS011;45321;53.200;5.814;2022-08-30T07:05:57;8.27;;;4.80;;
59504;SDS011;45321;53.200;5.814;2022-08-30T07:08:25;8.50;;;5.15;;
59504;SDS011;45321;53.200;5.814;2022-08-30T07:10:52;9.32;;;4.70;;
59504;SDS011;45321;53.200;5.814;2022-08-30T07:13:18;5.05;;;2.83;;
59504;SDS011;45321;53.200;5.814;2022-08-30T07:15:45;6.13;;;3.20;;
59504;SDS011;45321;53.200;5.814;2022-08-30T07:18:12;8.10;;;4.55;;
59504;SDS011;45321;53.200;5.814;2022-08-30T07:20:56;8.40;;;5.57;;
59504;SDS011;45321;53.200;5.814;2022-08-30T07:23:23;10.13;;;4.50;;
59504;SDS011;45321;53.200;5.814;2022-08-30T07:25:49;7.10;;;4.45;;
59504;SDS011;45321;53.200;5.814;2022-08-30T07:28:15;8.23;;;3.30;;
59504;SDS011;45321;53.200;5.814;2022-08-30T07:30:41;7.22;;;4.15;;
59504;SDS011;45321;53.200;5.814;2022-08-30T07:33:07;8.43;;;5.05;;
59504;SDS011;45321;53.200;5.814;2022-08-30T07:35:33;14.13;;;8.27;;
59504;SDS011;45321;53.200;5.814;2022-08-30T07:38:01;7.22;;;4.85;;
59504;SDS011;45321;53.200;5.814;2022-08-30T07:40:27;8.10;;;5.88;;
59504;SDS011;45321;53.200;5.814;2022-08-30T07:42:52;10.25;;;7.63;;
59504;SDS011;45321;53.200;5.814;2022-08-30T07:45:18;8.52;;;5.25;;
59504;SDS011;45321;53.200;5.814;2022-08-30T07:47:44;9.38;;;5.78;;
59504;SDS011;45321;53.200;5.814;2022-08-30T07:50:10;5.88;;;3.97;;
59504;SDS011;45321;53.200;5.814;2022-08-30T07:52:37;5.97;;;2.17;;
59504;SDS011;45321;53.200;5.814;2022-08-30T07:55:03;5.93;;;2.65;;
59504;SDS011;45321;53.200;5.814;2022-08-30T07:57:30;3.92;;;1.83;;
59504;SDS011;45321;53.200;5.814;2022-08-30T07:59:58;4.15;;;1.70;;
59504;SDS011;45321;53.200;5.814;2022-08-30T08:02:25;5.07;;;3.00;;
59504;SDS011;45321;53.200;5.814;2022-08-30T08:04:50;3.33;;;2.08;;
59504;SDS011;45321;53.200;5.814;2022-08-30T08:07:17;4.70;;;2.53;;
59504;SDS011;45321;53.200;5.814;2022-08-30T08:09:43;7.90;;;1.85;;
59504;SDS011;45321;53.200;5.814;2022-08-30T08:12:09;4.78;;;2.03;;
59504;SDS011;45321;53.200;5.814;2022-08-30T08:14:35;3.80;;;2.38;;
59504;SDS011;45321;53.200;5.814;2022-08-30T08:17:01;5.28;;;2.42;;
59504;SDS011;45321;53.200;5.814;2022-08-30T08:19:27;5.30;;;1.90;;
59504;SDS011;45321;53.200;5.814;2022-08-30T08:21:53;4.28;;;1.90;;
59504;SDS011;45321;53.200;5.814;2022-08-30T08:24:21;3.85;;;2.33;;
59504;SDS011;45321;53.200;5.814;2022-08-30T08:26:47;4.43;;;1.77;;
59504;SDS011;45321;53.200;5.814;2022-08-30T08:29:16;3.92;;;2.00;;
59504;SDS011;45321;53.200;5.814;2022-08-30T08:31:42;6.82;;;3.00;;
59504;SDS011;45321;53.200;5.814;2022-08-30T08:34:09;5.30;;;2.55;;
59504;SDS011;45321;53.200;5.814;2022-08-30T08:36:36;5.05;;;2.15;;
59504;SDS011;45321;53.200;5.814;2022-08-30T08:39:02;7.05;;;1.90;;
59504;SDS011;45321;53.200;5.814;2022-08-30T08:46:48;3.88;;;1.98;;
59504;SDS011;45321;53.200;5.814;2022-08-30T08:49:28;6.25;;;2.75;;
59504;SDS011;45321;53.200;5.814;2022-08-30T08:51:54;5.68;;;3.00;;
59504;SDS011;45321;53.200;5.814;2022-08-30T08:54:49;4.25;;;2.50;;
59504;SDS011;45321;53.200;5.814;2022-08-30T08:57:23;4.78;;;2.80;;
59504;SDS011;45321;53.200;5.814;2022-08-30T08:59:48;4.13;;;3.08;;
59504;SDS011;45321;53.200;5.814;2022-08-30T09:05:01;5.90;;;3.10;;
59504;SDS011;45321;53.200;5.814;2022-08-30T09:07:35;5.00;;;2.40;;
59504;SDS011;45321;53.200;5.814;2022-08-30T09:10:04;6.05;;;3.55;;
59504;SDS011;45321;53.200;5.814;2022-08-30T09:12:30;5.97;;;3.00;;
59504;SDS011;45321;53.200;5.814;2022-08-30T09:15:30;2.97;;;1.40;;
59504;SDS011;45321;53.200;5.814;2022-08-30T09:17:57;3.28;;;1.40;;
59504;SDS011;45321;53.200;5.814;2022-08-30T09:20:27;5.35;;;1.50;;
59504;SDS011;45321;53.200;5.814;2022-08-30T09:22:55;9.85;;;2.00;;
59504;SDS011;45321;53.200;5.814;2022-08-30T09:25:29;5.35;;;1.40;;
59504;SDS011;45321;53.200;5.814;2022-08-30T09:28:10;6.97;;;3.58;;
59504;SDS011;45321;53.200;5.814;2022-08-30T09:30:36;4.05;;;1.83;;
59504;SDS011;45321;53.200;5.814;2022-08-30T09:33:17;6.97;;;4.82;;
59504;SDS011;45321;53.200;5.814;2022-08-30T09:35:45;9.63;;;6.97;;
59504;SDS011;45321;53.200;5.814;2022-08-30T09:38:17;12.95;;;8.65;;
59504;SDS011;45321;53.200;5.814;2022-08-30T09:40:51;3.40;;;2.10;;
59504;SDS011;45321;53.200;5.814;2022-08-30T09:43:24;5.00;;;1.25;;
59504;SDS011;45321;53.200;5.814;2022-08-30T09:48:30;3.30;;;1.88;;
59504;SDS011;45321;53.200;5.814;2022-08-30T09:53:34;3.00;;;1.20;;
59504;SDS011;45321;53.200;5.814;2022-08-30T09:56:07;6.57;;;3.50;;
59504;SDS011;45321;53.200;5.814;2022-08-30T09:58:55;6.70;;;4.00;;
59504;SDS011;45321;53.200;5.814;2022-08-30T10:01:31;5.30;;;2.80;;
59504;SDS011;45321;53.200;5.814;2022-08-30T10:04:08;5.95;;;1.55;;
59504;SDS011;45321;53.200;5.814;2022-08-30T10:06:45;3.50;;;1.40;;
59504;SDS011;45321;53.200;5.814;2022-08-30T10:14:50;2.83;;;1.70;;
59504;SDS011;45321;53.200;5.814;2022-08-30T10:27:58;4.93;;;1.80;;
59504;SDS011;45321;53.200;5.814;2022-08-30T10:30:25;4.22;;;1.52;;
59504;SDS011;45321;53.200;5.814;2022-08-30T10:35:49;5.75;;;2.60;;
59504;SDS011;45321;53.200;5.814;2022-08-30T10:38:26;4.10;;;1.50;;
59504;SDS011;45321;53.200;5.814;2022-08-30T10:41:05;4.38;;;1.27;;
59504;SDS011;45321;53.200;5.814;2022-08-30T10:49:36;4.57;;;1.85;;
59504;SDS011;45321;53.200;5.814;2022-08-30T10:54:42;3.75;;;1.40;;
59504;SDS011;45321;53.200;5.814;2022-08-30T10:57:17;5.35;;;1.35;;
59504;SDS011;45321;53.200;5.814;2022-08-30T10:59:52;4.25;;;1.08;;
59504;SDS011;45321;53.200;5.814;2022-08-30T11:02:28;4.93;;;1.20;;
59504;SDS011;45321;53.200;5.814;2022-08-30T11:11:17;2.65;;;1.20;;
59504;SDS011;45321;53.200;5.814;2022-08-30T11:13:48;5.13;;;2.20;;
59504;SDS011;45321;53.200;5.814;2022-08-30T11:16:14;3.40;;;1.08;;
59504;SDS011;45321;53.200;5.814;2022-08-30T11:18:47;2.60;;;0.80;;
59504;SDS011;45321;53.200;5.814;2022-08-30T11:21:20;2.67;;;0.73;;
59504;SDS011;45321;53.200;5.814;2022-08-30T11:24:02;2.72;;;0.90;;
59504;SDS011;45321;53.200;5.814;2022-08-30T11:40:06;0.90;;;0.68;;
59504;SDS011;45321;53.200;5.814;2022-08-30T11:42:40;2.75;;;0.68;;
59504;SDS011;45321;53.200;5.814;2022-08-30T11:51:05;4.35;;;1.55;;
59504;SDS011;45321;53.200;5.814;2022-08-30T11:56:51;3.08;;;1.05;;
59504;SDS011;45321;53.200;5.814;2022-08-30T11:59:28;2.83;;;0.95;;
59504;SDS011;45321;53.200;5.814;2022-08-30T12:02:06;3.63;;;0.70;;
59504;SDS011;45321;53.200;5.814;2022-08-30T12:07:10;3.47;;;0.90;;
59504;SDS011;45321;53.200;5.814;2022-08-30T12:14:54;3.10;;;1.20;;
59504;SDS011;45321;53.200;5.814;2022-08-30T12:20:37;3.75;;;0.93;;
59504;SDS011;45321;53.200;5.814;2022-08-30T12:24:12;2.30;;;1.00;;
59504;SDS011;45321;53.200;5.814;2022-08-30T12:28:45;5.45;;;2.95;;
59504;SDS011;45321;53.200;5.814;2022-08-30T12:31:14;2.95;;;1.08;;
59504;SDS011;45321;53.200;5.814;2022-08-30T12:33:53;3.22;;;1.10;;
59504;SDS011;45321;53.200;5.814;2022-08-30T12:36:35;2.20;;;0.93;;
59504;SDS011;45321;53.200;5.814;2022-08-30T12:39:14;3.45;;;0.80;;
59504;SDS011;45321;53.200;5.814;2022-08-30T12:41:46;1.95;;;0.70;;
59504;SDS011;45321;53.200;5.814;2022-08-30T12:44:14;3.97;;;0.73;;
59504;SDS011;45321;53.200;5.814;2022-08-30T12:46:44;3.17;;;0.88;;
59504;SDS011;45321;53.200;5.814;2022-08-30T12:49:16;6.03;;;1.13;;
59504;SDS011;45321;53.200;5.814;2022-08-30T12:51:44;3.30;;;1.30;;
59504;SDS011;45321;53.200;5.814;2022-08-30T12:54:20;1.85;;;0.75;;
59504;SDS011;45321;53.200;5.814;2022-08-30T12:56:59;3.05;;;0.80;;
59504;SDS011;45321;53.200;5.814;2022-08-30T12:59:37;2.15;;;0.85;;
59504;SDS011;45321;53.200;5.814;2022-08-30T13:02:22;2.63;;;0.80;;
59504;SDS011;45321;53.200;5.814;2022-08-30T13:04:51;2.33;;;0.60;;
59504;SDS011;45321;53.200;5.814;2022-08-30T13:10:04;1.50;;;0.82;;
59504;SDS011;45321;53.200;5.814;2022-08-30T13:12:39;4.20;;;1.67;;
59504;SDS011;45321;53.200;5.814;2022-08-30T13:15:13;4.15;;;0.85;;
59504;SDS011;45321;53.200;5.814;2022-08-30T13:17:44;2.83;;;1.50;;
59504;SDS011;45321;53.200;5.814;2022-08-30T13:22:37;2.65;;;0.85;;
59504;SDS011;45321;53.200;5.814;2022-08-30T13:25:05;1.27;;;0.70;;
59504;SDS011;45321;53.200;5.814;2022-08-30T13:27:33;3.90;;;0.75;;
59504;SDS011;45321;53.200;5.814;2022-08-30T13:30:07;3.45;;;1.00;;
59504;SDS011;45321;53.200;5.814;2022-08-30T13:32:34;1.30;;;0.40;;
59504;SDS011;45321;53.200;5.814;2022-08-30T13:35:02;3.22;;;0.73;;
59504;SDS011;45321;53.200;5.814;2022-08-30T13:37:29;3.38;;;1.00;;
59504;SDS011;45321;53.200;5.814;2022-08-30T13:39:56;3.70;;;0.90;;
59504;SDS011;45321;53.200;5.814;2022-08-30T13:42:22;3.42;;;1.20;;
59504;SDS011;45321;53.200;5.814;2022-08-30T13:44:48;3.50;;;0.75;;
59504;SDS011;45321;53.200;5.814;2022-08-30T13:47:14;2.25;;;0.80;;
59504;SDS011;45321;53.200;5.814;2022-08-30T13:49:42;3.72;;;1.10;;
59504;SDS011;45321;53.200;5.814;2022-08-30T13:52:09;3.63;;;0.80;;
59504;SDS011;45321;53.200;5.814;2022-08-30T13:54:37;5.35;;;2.60;;
59504;SDS011;45321;53.200;5.814;2022-08-30T13:57:03;3.75;;;1.20;;
59504;SDS011;45321;53.200;5.814;2022-08-30T13:59:29;4.43;;;0.90;;
59504;SDS011;45321;53.200;5.814;2022-08-30T14:01:58;5.80;;;1.02;;
59504;SDS011;45321;53.200;5.814;2022-08-30T14:04:25;1.83;;;0.90;;
59504;SDS011;45321;53.200;5.814;2022-08-30T14:06:54;2.03;;;1.10;;
59504;SDS011;45321;53.200;5.814;2022-08-30T14:09:20;2.15;;;0.90;;
59504;SDS011;45321;53.200;5.814;2022-08-30T14:11:45;2.63;;;0.63;;
59504;SDS011;45321;53.200;5.814;2022-08-30T14:14:11;3.22;;;0.90;;
59504;SDS011;45321;53.200;5.814;2022-08-30T14:16:38;4.55;;;0.90;;
59504;SDS011;45321;53.200;5.814;2022-08-30T14:19:06;3.35;;;0.90;;
59504;SDS011;45321;53.200;5.814;2022-08-30T14:21:32;1.83;;;0.80;;
59504;SDS011;45321;53.200;5.814;2022-08-30T14:23:58;1.23;;;0.75;;
59504;SDS011;45321;53.200;5.814;2022-08-30T14:26:35;3.45;;;1.90;;
59504;SDS011;45321;53.200;5.814;2022-08-30T14:29:04;2.97;;;1.52;;
59504;SDS011;45321;53.200;5.814;2022-08-30T14:31:32;3.25;;;1.15;;
59504;SDS011;45321;53.200;5.814;2022-08-30T14:33:58;2.03;;;0.75;;
59504;SDS011;45321;53.200;5.814;2022-08-30T14:36:25;2.67;;;1.02;;
59504;SDS011;45321;53.200;5.814;2022-08-30T14:38:50;5.30;;;1.05;;
59504;SDS011;45321;53.200;5.814;2022-08-30T14:41:16;2.45;;;1.25;;
59504;SDS011;45321;53.200;5.814;2022-08-30T14:43:43;3.50;;;1.27;;
59504;SDS011;45321;53.200;5.814;2022-08-30T14:46:08;2.00;;;0.80;;
59504;SDS011;45321;53.200;5.814;2022-08-30T14:48:35;2.53;;;0.82;;
59504;SDS011;45321;53.200;5.814;2022-08-30T14:51:02;2.63;;;1.00;;
59504;SDS011;45321;53.200;5.814;2022-08-30T14:53:37;2.75;;;0.98;;
59504;SDS011;45321;53.200;5.814;2022-08-30T14:56:06;5.10;;;1.05;;
59504;SDS011;45321;53.200;5.814;2022-08-30T14:58:33;1.77;;;0.73;;
59504;SDS011;45321;53.200;5.814;2022-08-30T15:00:59;3.33;;;1.15;;
59504;SDS011;45321;53.200;5.814;2022-08-30T15:03:24;2.63;;;0.90;;
59504;SDS011;45321;53.200;5.814;2022-08-30T15:05:51;6.40;;;1.45;;
59504;SDS011;45321;53.200;5.814;2022-08-30T15:08:19;2.30;;;1.10;;
59504;SDS011;45321;53.200;5.814;2022-08-30T15:10:45;5.93;;;0.90;;
59504;SDS011;45321;53.200;5.814;2022-08-30T15:13:14;3.72;;;0.90;;
59504;SDS011;45321;53.200;5.814;2022-08-30T15:15:40;6.70;;;1.27;;
59504;SDS011;45321;53.200;5.814;2022-08-30T15:18:07;6.05;;;1.08;;
59504;SDS011;45321;53.200;5.814;2022-08-30T15:20:33;2.72;;;0.82;;
59504;SDS011;45321;53.200;5.814;2022-08-30T15:22:58;1.85;;;0.70;;
59504;SDS011;45321;53.200;5.814;2022-08-30T15:25:24;5.00;;;0.90;;
59504;SDS011;45321;53.200;5.814;2022-08-30T15:27:50;4.13;;;1.00;;
59504;SDS011;45321;53.200;5.814;2022-08-30T15:30:15;1.33;;;0.70;;
59504;SDS011;45321;53.200;5.814;2022-08-30T15:32:44;3.92;;;0.80;;
59504;SDS011;45321;53.200;5.814;2022-08-30T15:35:15;4.23;;;0.93;;
59504;SDS011;45321;53.200;5.814;2022-08-30T15:37:40;1.40;;;0.60;;
59504;SDS011;45321;53.200;5.814;2022-08-30T15:40:06;1.90;;;0.90;;
59504;SDS011;45321;53.200;5.814;2022-08-30T15:42:33;1.30;;;0.80;;
59504;SDS011;45321;53.200;5.814;2022-08-30T15:44:58;3.53;;;0.90;;
59504;SDS011;45321;53.200;5.814;2022-08-30T15:47:24;2.10;;;1.27;;
59504;SDS011;45321;53.200;5.814;2022-08-30T15:49:57;2.35;;;0.82;;
59504;SDS011;45321;53.200;5.814;2022-08-30T15:52:26;4.50;;;1.00;;
59504;SDS011;45321;53.200;5.814;2022-08-30T15:54:52;3.53;;;1.02;;
59504;SDS011;45321;53.200;5.814;2022-08-30T15:57:18;7.03;;;1.10;;
59504;SDS011;45321;53.200;5.814;2022-08-30T15:59:44;2.80;;;0.90;;
59504;SDS011;45321;53.200;5.814;2022-08-30T16:02:10;6.40;;;1.40;;
59504;SDS011;45321;53.200;5.814;2022-08-30T16:04:36;7.32;;;1.45;;
59504;SDS011;45321;53.200;5.814;2022-08-30T16:07:03;4.93;;;1.10;;
59504;SDS011;45321;53.200;5.814;2022-08-30T16:09:32;2.95;;;1.10;;
59504;SDS011;45321;53.200;5.814;2022-08-30T16:11:59;3.38;;;0.90;;
59504;SDS011;45321;53.200;5.814;2022-08-30T16:14:25;3.63;;;0.90;;
59504;SDS011;45321;53.200;5.814;2022-08-30T16:16:52;2.83;;;1.15;;
59504;SDS011;45321;53.200;5.814;2022-08-30T16:19:17;5.15;;;0.90;;
59504;SDS011;45321;53.200;5.814;2022-08-30T16:21:43;2.80;;;0.80;;
59504;SDS011;45321;53.200;5.814;2022-08-30T16:24:11;3.38;;;0.80;;
59504;SDS011;45321;53.200;5.814;2022-08-30T16:26:38;1.25;;;0.65;;